Time;durP1;ratioP1;P1;durP2;ratioP2;P2;SDS_P1;SDS_P2;PMS_P1;PMS_P2;Temp;Humidity;BMP_temperature;BMP_pressure;BME280_temperature;BME280_humidity;BME280_pressure;Samples;Min_cycle;Max_cycle;Signal;HPM_P1;HPM_P2
2023/02/28 00:01:13;;;;;;;9.73;6.80;;;-1.50;1.00;;;;;;5077502;28;20556;-62
2023/02/28 00:03:40;;;;;;;10.50;6.53;;;-1.50;1.00;;;;;;5079937;28;20584;-60
2023/02/28 00:06:10;;;;;;;8.97;7.40;;;-1.40;1.00;;;;;;5078208;28;20498;-60
2023/02/28 00:08:38;;;;;;;7.03;6.03;;;-1.40;1.00;;;;;;5078980;28;20474;-60
2023/02/28 00:11:10;;;;;;;9.20;7.00;;;-1.40;1.00;;;;;;5080141;28;20536;-62
2023/02/28 00:13:39;;;;;;;9.13;6.90;;;-1.40;1.00;;;;;;5079141;28;20545;-60
2023/02/28 00:16:10;;;;;;;9.87;6.70;;;-1.40;1.00;;;;;;5077426;28;20478;-59
2023/02/28 00:18:37;;;;;;;9.50;6.23;;;-1.40;1.00;;;;;;5077036;28;20476;-59
2023/02/28 00:21:04;;;;;;;8.47;6.80;;;-1.30;1.00;;;;;;5079507;28;20956;-60
2023/02/28 00:23:32;;;;;;;8.30;6.33;;;-1.30;1.00;;;;;;5079021;28;20497;-58
2023/02/28 00:25:59;;;;;;;10.10;6.37;;;-1.20;1.00;;;;;;5079415;28;20562;-56
2023/02/28 00:28:28;;;;;;;10.07;7.63;;;-1.20;1.00;;;;;;5075850;28;20587;-58
2023/02/28 00:30:57;;;;;;;7.50;6.80;;;-1.10;1.00;;;;;;5078337;28;20502;-59
2023/02/28 00:33:24;;;;;;;9.23;7.30;;;-1.10;1.00;;;;;;5079097;28;20552;-60
2023/02/28 00:35:51;;;;;;;11.87;7.87;;;-1.10;1.00;;;;;;5079005;28;20558;-61
2023/02/28 00:38:18;;;;;;;9.90;6.80;;;-1.10;1.00;;;;;;5076054;28;20475;-62
2023/02/28 00:40:45;;;;;;;9.27;7.30;;;-1.10;1.00;;;;;;5078795;28;20471;-62
2023/02/28 00:43:13;;;;;;;8.93;7.70;;;-1.10;1.00;;;;;;5078051;28;20901;-62
2023/02/28 00:45:41;;;;;;;10.07;7.23;;;-1.10;1.00;;;;;;5076346;28;20476;-62
2023/02/28 00:48:08;;;;;;;11.17;7.87;;;-1.10;1.00;;;;;;5076995;28;20532;-61
2023/02/28 00:50:35;;;;;;;9.57;6.90;;;-1.20;1.00;;;;;;5078180;28;20464;-61
2023/02/28 00:53:03;;;;;;;10.40;7.47;;;-1.30;1.00;;;;;;5078119;28;20471;-61
2023/02/28 00:55:30;;;;;;;9.03;6.90;;;-1.30;1.00;;;;;;5078847;28;20484;-62
2023/02/28 00:57:57;;;;;;;11.27;7.40;;;-1.40;1.00;;;;;;5078473;28;20465;-59
2023/02/28 01:00:24;;;;;;;11.50;7.77;;;-1.40;1.00;;;;;;5078734;28;20458;-61
2023/02/28 01:02:53;;;;;;;12.00;8.27;;;-1.40;1.00;;;;;;5079057;28;20550;-59
2023/02/28 01:05:20;;;;;;;9.67;7.53;;;-1.40;1.00;;;;;;5077322;28;20794;-60
2023/02/28 01:07:47;;;;;;;11.70;7.77;;;-1.60;1.00;;;;;;5077471;28;20473;-59
2023/02/28 01:10:14;;;;;;;10.17;8.03;;;-1.50;1.00;;;;;;5078277;28;20471;-61
2023/02/28 01:12:42;;;;;;;11.90;7.93;;;-1.60;1.00;;;;;;5078588;28;20565;-61
2023/02/28 01:15:12;;;;;;;11.17;7.73;;;-1.60;1.00;;;;;;5077612;28;20565;-58
2023/02/28 01:17:39;;;;;;;13.53;7.67;;;-1.70;1.00;;;;;;5077841;28;20494;-60
2023/02/28 01:20:10;;;;;;;7.53;6.50;;;-1.80;1.00;;;;;;5077392;28;20560;-60
2023/02/28 01:22:38;;;;;;;9.57;7.47;;;-1.80;1.00;;;;;;5078470;28;20820;-59
2023/02/28 01:25:05;;;;;;;9.53;7.33;;;-1.90;1.00;;;;;;5078313;28;20920;-60
2023/02/28 01:27:34;;;;;;;10.23;7.20;;;-1.90;1.00;;;;;;5078555;28;20465;-61
2023/02/28 01:30:01;;;;;;;9.87;7.23;;;-1.90;1.00;;;;;;5075707;28;20474;-55
2023/02/28 01:32:28;;;;;;;9.90;6.57;;;-1.80;1.00;;;;;;5077675;28;20972;-55
2023/02/28 01:34:55;;;;;;;9.73;6.80;;;-1.80;1.00;;;;;;5076416;28;20471;-58
2023/02/28 01:37:24;;;;;;;9.70;6.60;;;-1.80;1.00;;;;;;5075882;28;20457;-61
2023/02/28 01:39:51;;;;;;;11.50;7.57;;;-1.80;1.00;;;;;;5058110;28;20458;-61
2023/02/28 01:42:18;;;;;;;9.47;7.30;;;-1.80;1.00;;;;;;5063132;28;20466;-62
2023/02/28 01:45:21;;;;;;;12.80;8.83;;;-1.80;1.00;;;;;;5077920;28;20940;-61
2023/02/28 01:47:51;;;;;;;9.50;6.70;;;-1.80;1.00;;;;;;5057617;28;20466;-60
2023/02/28 01:50:21;;;;;;;7.63;6.53;;;-1.80;1.00;;;;;;5075827;28;20484;-61
2023/02/28 01:52:51;;;;;;;10.27;7.60;;;-1.90;1.00;;;;;;5076051;28;20483;-62
2023/02/28 01:55:21;;;;;;;9.47;7.30;;;-1.90;1.00;;;;;;5076137;28;20496;-62
2023/02/28 01:57:53;;;;;;;11.67;6.70;;;-2.00;1.00;;;;;;5076276;28;20474;-61
2023/02/28 02:00:24;;;;;;;11.43;7.30;;;-2.10;1.00;;;;;;5076182;28;20487;-61
2023/02/28 02:02:54;;;;;;;10.47;7.47;;;-2.10;1.00;;;;;;5073900;28;20472;-62
2023/02/28 02:05:23;;;;;;;10.87;7.30;;;-2.00;1.00;;;;;;5075886;28;20921;-61
2023/02/28 02:07:55;;;;;;;10.33;7.87;;;-2.10;1.00;;;;;;5076243;28;20473;-61
2023/02/28 02:10:28;;;;;;;12.97;8.63;;;-2.20;1.00;;;;;;5077608;28;20816;-60
2023/02/28 02:13:09;;;;;;;17.93;10.50;;;-2.10;1.00;;;;;;5076415;28;20774;-61
2023/02/28 02:15:41;;;;;;;16.43;10.67;;;-2.10;1.00;;;;;;5066883;28;20901;-60
2023/02/28 02:18:27;;;;;;;10.77;8.07;;;-2.10;1.00;;;;;;5077086;28;20544;-61
2023/02/28 02:21:28;;;;;;;10.13;7.83;;;-2.20;1.00;;;;;;5076776;28;20476;-61
2023/02/28 02:24:32;;;;;;;9.93;7.70;;;-2.20;1.00;;;;;;5074965;28;20952;-58
2023/02/28 02:27:19;;;;;;;11.43;8.23;;;-2.30;1.00;;;;;;5076715;28;20947;-57
2023/02/28 02:30:12;;;;;;;14.50;8.70;;;-2.30;1.00;;;;;;5056757;28;20744;-58
2023/02/28 02:33:19;;;;;;;12.00;7.90;;;-2.30;1.00;;;;;;5030126;28;20576;-60
2023/02/28 02:35:55;;;;;;;14.47;8.07;;;-2.30;1.00;;;;;;5075774;28;20446;-61
2023/02/28 02:38:33;;;;;;;11.13;8.43;;;-2.30;1.00;;;;;;5075379;28;20599;-59
2023/02/28 02:41:07;;;;;;;11.63;8.57;;;-2.20;45.80;;;;;;5076957;28;20457;-61
2023/02/28 02:43:39;;;;;;;10.43;7.77;;;-2.20;96.10;;;;;;5075562;28;20470;-59
2023/02/28 02:46:10;;;;;;;11.00;7.80;;;-2.20;99.90;;;;;;5074885;28;20472;-61
2023/02/28 02:48:41;;;;;;;10.70;7.40;;;-2.30;99.90;;;;;;5075318;28;20857;-59
2023/02/28 02:51:15;;;;;;;12.03;7.87;;;-2.40;67.80;;;;;;5077151;28;20463;-60
2023/02/28 02:53:49;;;;;;;11.23;7.47;;;-2.30;89.80;;;;;;5076908;28;20438;-60
2023/02/28 02:56:19;;;;;;;13.77;7.50;;;-2.30;88.00;;;;;;5077033;28;20556;-61
2023/02/28 02:58:51;;;;;;;9.13;7.53;;;-2.40;66.40;;;;;;5077289;28;20754;-61
2023/02/28 03:01:27;;;;;;;11.17;8.40;;;-2.40;36.00;;;;;;5076358;28;20469;-58
2023/02/28 03:03:58;;;;;;;14.17;7.53;;;-2.40;77.90;;;;;;5076732;28;20815;-59
2023/02/28 03:06:27;;;;;;;10.87;7.73;;;-2.40;93.10;;;;;;5075446;28;20503;-57
2023/02/28 03:08:54;;;;;;;12.60;8.07;;;-2.40;94.20;;;;;;5076832;28;20484;-61
2023/02/28 03:11:22;;;;;;;10.20;7.40;;;-2.50;89.00;;;;;;5076815;28;20465;-61
2023/02/28 03:14:38;;;;;;;10.17;7.37;;;-2.40;99.90;;;;;;5076665;28;20465;-59
2023/02/28 03:17:19;;;;;;;9.90;8.47;;;-2.50;99.90;;;;;;4991713;28;20539;-59
2023/02/28 03:19:56;;;;;;;10.27;7.97;;;-2.50;91.10;;;;;;4993810;28;20469;-61
2023/02/28 03:25:21;;;;;;;8.63;7.40;;;-2.50;99.90;;;;;;5094587;27;20598;-61
2023/02/28 03:27:56;;;;;;;8.87;7.93;;;-2.50;99.90;;;;;;5093834;28;20461;-60
2023/02/28 03:30:28;;;;;;;10.07;7.20;;;-2.50;99.90;;;;;;5094529;28;20431;-61
2023/02/28 03:32:59;;;;;;;8.90;7.33;;;-2.50;99.90;;;;;;5091197;28;20469;-61
2023/02/28 03:35:31;;;;;;;12.83;8.40;;;-2.50;99.90;;;;;;5093868;28;20564;-61
2023/02/28 03:38:06;;;;;;;10.73;6.73;;;-2.50;99.90;;;;;;5093393;28;20482;-61
2023/02/28 03:40:38;;;;;;;12.67;7.50;;;-2.50;99.90;;;;;;5074255;28;20457;-61
2023/02/28 03:43:11;;;;;;;11.33;7.90;;;-2.60;99.90;;;;;;5091723;28;20503;-59
2023/02/28 03:45:41;;;;;;;13.00;7.27;;;-2.60;99.90;;;;;;5093414;28;20482;-61
2023/02/28 03:48:13;;;;;;;10.20;6.93;;;-2.60;99.90;;;;;;5092430;28;20572;-60
2023/02/28 03:50:42;;;;;;;8.67;7.43;;;-2.50;99.90;;;;;;5092829;28;20472;-60
2023/02/28 03:53:14;;;;;;;11.93;7.30;;;-2.60;94.80;;;;;;5093292;28;20467;-61
2023/02/28 03:55:47;;;;;;;9.57;7.23;;;-2.60;51.40;;;;;;5094920;28;20517;-60
2023/02/28 03:58:24;;;;;;;9.80;7.10;;;-2.60;95.20;;;;;;5093792;28;20465;-60
2023/02/28 04:00:57;;;;;;;8.23;6.40;;;-2.60;54.70;;;;;;5094324;28;20507;-59
2023/02/28 04:03:25;;;;;;;11.50;7.63;;;-2.70;62.90;;;;;;5092141;28;20490;-61
2023/02/28 04:05:55;;;;;;;15.63;6.30;;;-2.80;93.40;;;;;;5092673;28;20453;-58
2023/02/28 04:08:23;;;;;;;8.20;5.83;;;-2.70;99.90;;;;;;5093347;28;20761;-60
2023/02/28 04:10:57;;;;;;;11.03;6.80;;;-2.70;99.90;;;;;;5093497;28;20472;-60
2023/02/28 04:13:25;;;;;;;7.87;6.17;;;-2.70;85.80;;;;;;5093298;28;20884;-56
2023/02/28 04:15:52;;;;;;;10.07;6.00;;;-2.70;40.90;;;;;;5094248;28;20461;-59
2023/02/28 04:18:19;;;;;;;8.20;6.53;;;-2.70;29.90;;;;;;5092540;28;20563;-60
2023/02/28 04:20:47;;;;;;;8.20;6.43;;;-2.60;23.50;;;;;;5094062;28;20595;-60
2023/02/28 04:23:15;;;;;;;10.20;6.00;;;-2.70;7.70;;;;;;5092258;28;20504;-59
2023/02/28 04:25:42;;;;;;;7.60;5.70;;;-2.60;7.20;;;;;;5093977;28;20461;-60
2023/02/28 04:28:11;;;;;;;9.07;6.00;;;-2.70;1.00;;;;;;5093428;28;20467;-58
2023/02/28 04:30:39;;;;;;;8.80;6.40;;;-2.70;1.00;;;;;;5092569;28;20464;-58
2023/02/28 04:33:08;;;;;;;9.23;5.93;;;-2.70;1.00;;;;;;5091885;28;20480;-57
2023/02/28 04:35:35;;;;;;;8.10;6.03;;;-2.70;1.00;;;;;;5084630;28;20462;-60
2023/02/28 04:38:02;;;;;;;9.03;6.63;;;-2.70;1.00;;;;;;5079062;28;20782;-57
2023/02/28 04:40:30;;;;;;;7.83;5.97;;;-2.80;1.00;;;;;;5077545;28;20820;-58
2023/02/28 04:42:57;;;;;;;10.20;6.17;;;-2.80;1.00;;;;;;5079761;28;20461;-60
2023/02/28 04:45:25;;;;;;;13.63;7.67;;;-2.80;1.00;;;;;;5077605;28;20495;-59
2023/02/28 04:47:53;;;;;;;11.20;6.50;;;-2.80;1.00;;;;;;5078099;28;20480;-59
2023/02/28 04:50:20;;;;;;;8.63;6.20;;;-2.90;1.00;;;;;;5078372;28;20477;-57
2023/02/28 04:52:47;;;;;;;8.67;6.53;;;-2.90;1.00;;;;;;5079711;28;20461;-61
2023/02/28 04:55:15;;;;;;;10.60;5.80;;;-2.90;1.00;;;;;;5077800;28;20480;-61
2023/02/28 04:57:42;;;;;;;9.63;6.13;;;-2.80;1.00;;;;;;5078911;28;20465;-61
2023/02/28 05:00:15;;;;;;;11.43;6.07;;;-3.00;1.00;;;;;;5078192;28;20457;-61
2023/02/28 05:02:44;;;;;;;6.00;4.80;;;-3.00;1.00;;;;;;5072884;28;20469;-60
2023/02/28 05:05:11;;;;;;;7.93;5.10;;;-3.00;1.00;;;;;;5082269;28;20609;-59
2023/02/28 05:07:39;;;;;;;6.90;5.40;;;-3.00;1.00;;;;;;5077675;28;20952;-61
2023/02/28 05:10:07;;;;;;;5.90;5.17;;;-2.90;1.00;;;;;;5075307;28;20476;-56
2023/02/28 05:12:34;;;;;;;9.80;6.60;;;-2.80;1.00;;;;;;5075508;28;20480;-59
2023/02/28 05:15:02;;;;;;;7.37;5.83;;;-2.90;1.00;;;;;;5078413;28;20489;-61
2023/02/28 05:17:29;;;;;;;8.93;6.23;;;-2.90;1.00;;;;;;5063263;28;20474;-60
2023/02/28 05:19:58;;;;;;;6.93;6.20;;;-3.00;1.00;;;;;;5074222;28;20476;-58
2023/02/28 05:22:25;;;;;;;8.90;5.70;;;-3.00;1.00;;;;;;5077663;28;20552;-58
2023/02/28 05:24:53;;;;;;;9.93;5.97;;;-3.00;1.00;;;;;;5074722;28;20497;-59
2023/02/28 05:27:20;;;;;;;9.93;6.00;;;-3.00;1.00;;;;;;5079062;28;20467;-59
2023/02/28 05:29:48;;;;;;;9.67;5.63;;;-3.10;1.00;;;;;;5077527;28;20466;-59
2023/02/28 05:32:16;;;;;;;7.20;5.67;;;-3.00;1.00;;;;;;5077848;28;20454;-60
2023/02/28 05:34:43;;;;;;;5.90;4.73;;;-2.90;1.00;;;;;;5076900;28;20470;-56
2023/02/28 05:37:15;;;;;;;7.07;5.30;;;-2.80;1.00;;;;;;5078556;28;20475;-60
2023/02/28 05:39:43;;;;;;;5.47;4.87;;;-2.70;1.00;;;;;;5074685;28;20483;-59
2023/02/28 05:42:10;;;;;;;11.80;5.40;;;-2.70;1.00;;;;;;5078063;28;20464;-59
2023/02/28 05:44:38;;;;;;;7.83;6.20;;;-2.60;1.00;;;;;;5077743;28;20871;-59
2023/02/28 05:47:05;;;;;;;11.30;6.67;;;-2.60;1.00;;;;;;5076453;28;20436;-61
2023/02/28 05:49:33;;;;;;;9.43;6.50;;;-2.60;1.00;;;;;;5073691;28;20777;-60
2023/02/28 05:52:00;;;;;;;7.03;5.27;;;-2.70;1.00;;;;;;5059547;28;20465;-61
2023/02/28 05:54:28;;;;;;;8.03;5.13;;;-2.70;1.00;;;;;;5076472;28;20453;-62
2023/02/28 05:56:56;;;;;;;10.80;4.73;;;-2.80;1.00;;;;;;5077608;28;20761;-62
2023/02/28 05:59:23;;;;;;;7.80;4.77;;;-2.80;1.00;;;;;;5057016;28;20460;-62
2023/02/28 06:01:50;;;;;;;6.30;5.40;;;-2.70;1.00;;;;;;5074830;28;20479;-62
2023/02/28 06:04:19;;;;;;;6.47;4.33;;;-2.80;1.00;;;;;;5074962;28;20490;-62
2023/02/28 06:06:47;;;;;;;13.10;6.00;;;-2.80;1.00;;;;;;5076621;28;20777;-61
2023/02/28 06:09:15;;;;;;;6.50;5.23;;;-2.80;1.00;;;;;;5077307;28;20932;-62
2023/02/28 06:11:44;;;;;;;7.77;5.80;;;-2.80;1.00;;;;;;5078231;28;20463;-62
2023/02/28 06:14:16;;;;;;;8.53;6.40;;;-2.80;1.00;;;;;;5077494;28;20973;-62
2023/02/28 06:16:43;;;;;;;6.50;5.17;;;-2.90;1.00;;;;;;5075212;28;20470;-61
2023/02/28 06:19:12;;;;;;;7.50;6.13;;;-2.90;1.00;;;;;;5075221;28;20469;-62
2023/02/28 06:21:40;;;;;;;7.00;5.63;;;-2.90;1.00;;;;;;5076433;28;20469;-61
2023/02/28 06:24:10;;;;;;;9.17;5.67;;;-3.00;1.00;;;;;;5076524;28;20794;-59
2023/02/28 06:26:37;;;;;;;15.93;5.43;;;-3.00;1.00;;;;;;5075405;28;20474;-62
2023/02/28 06:29:07;;;;;;;6.90;5.67;;;-3.00;1.00;;;;;;5076646;28;20475;-59
2023/02/28 06:31:34;;;;;;;7.33;5.53;;;-2.90;1.00;;;;;;5076302;28;20472;-61
2023/02/28 06:34:01;;;;;;;11.43;5.10;;;-2.80;1.00;;;;;;5076815;28;20461;-62
2023/02/28 06:36:28;;;;;;;5.37;4.87;;;-2.90;1.00;;;;;;5074504;28;20472;-60
2023/02/28 06:38:55;;;;;;;6.70;5.50;;;-3.00;1.00;;;;;;5075968;28;20473;-61
2023/02/28 06:41:24;;;;;;;6.80;5.27;;;-2.90;1.00;;;;;;5075709;28;20921;-62
2023/02/28 06:43:51;;;;;;;6.33;5.33;;;-2.90;1.00;;;;;;5072059;28;20476;-61
2023/02/28 06:46:20;;;;;;;7.80;5.40;;;-2.90;1.00;;;;;;5075955;28;20473;-62
2023/02/28 06:48:47;;;;;;;6.27;5.20;;;-2.90;1.00;;;;;;5076419;28;20468;-62
2023/02/28 06:51:17;;;;;;;7.83;5.80;;;-2.80;1.00;;;;;;5077468;28;20469;-62
2023/02/28 06:53:44;;;;;;;7.70;5.50;;;-2.80;1.00;;;;;;5076666;28;20492;-62
2023/02/28 06:56:14;;;;;;;6.40;5.50;;;-2.70;1.00;;;;;;5075807;28;20457;-62
2023/02/28 06:58:42;;;;;;;8.90;5.90;;;-2.70;1.00;;;;;;5072804;28;20477;-62
2023/02/28 07:01:10;;;;;;;9.20;5.67;;;-2.70;1.00;;;;;;5074230;28;20472;-62
2023/02/28 07:03:39;;;;;;;8.37;6.33;;;-2.70;1.00;;;;;;5075775;28;20469;-62
2023/02/28 07:06:07;;;;;;;10.77;5.40;;;-2.60;1.00;;;;;;5075929;28;20530;-62
2023/02/28 07:08:34;;;;;;;9.57;6.60;;;-2.60;1.00;;;;;;5075959;28;20461;-62
2023/02/28 07:11:02;;;;;;;9.13;6.70;;;-2.70;1.00;;;;;;5077987;28;20744;-62
2023/02/28 07:13:29;;;;;;;7.37;6.40;;;-2.60;1.00;;;;;;5078111;28;20461;-62
2023/02/28 07:15:58;;;;;;;8.73;5.90;;;-2.60;1.00;;;;;;5076619;28;20556;-62
2023/02/28 07:18:25;;;;;;;6.53;5.67;;;-2.60;1.00;;;;;;5077865;28;20496;-62
2023/02/28 07:20:55;;;;;;;7.90;5.83;;;-2.50;1.00;;;;;;5077890;28;20435;-61
2023/02/28 07:23:22;;;;;;;8.90;7.20;;;-2.40;1.00;;;;;;5077931;28;20485;-62
2023/02/28 07:25:51;;;;;;;9.80;7.10;;;-2.40;1.00;;;;;;5077011;28;20576;-62
2023/02/28 07:28:18;;;;;;;9.10;6.63;;;-2.30;1.00;;;;;;5077556;28;20461;-61
2023/02/28 07:30:45;;;;;;;12.23;6.90;;;-2.20;1.00;;;;;;5078003;28;20754;-62
2023/02/28 07:33:12;;;;;;;13.83;8.10;;;-2.00;1.00;;;;;;5077608;28;20466;-62
2023/02/28 07:35:39;;;;;;;10.70;7.60;;;-1.80;1.00;;;;;;5078159;28;20468;-62
2023/02/28 07:38:08;;;;;;;11.17;6.47;;;-1.50;1.00;;;;;;5077526;28;20462;-62
2023/02/28 07:40:36;;;;;;;13.40;8.10;;;-1.30;1.00;;;;;;5077145;28;20463;-62
2023/02/28 07:43:04;;;;;;;10.13;7.30;;;-1.10;1.00;;;;;;5077010;28;20464;-63
2023/02/28 07:45:34;;;;;;;9.10;6.50;;;-0.70;1.00;;;;;;5077399;28;20969;-63
2023/02/28 07:48:01;;;;;;;10.30;6.90;;;-0.50;1.00;;;;;;5077597;28;20468;-62
2023/02/28 07:50:30;;;;;;;11.13;6.50;;;-0.30;1.00;;;;;;5077211;28;20463;-62
2023/02/28 07:52:58;;;;;;;7.50;5.07;;;0.00;99.90;;;;;;5076912;28;20473;-61
2023/02/28 07:55:27;;;;;;;8.63;5.47;;;0.30;99.90;;;;;;5077274;28;20746;-61
2023/02/28 07:57:55;;;;;;;5.70;5.10;;;0.60;99.90;;;;;;5077095;28;20496;-59
2023/02/28 08:00:23;;;;;;;7.00;5.97;;;0.80;99.90;;;;;;5076362;28;20468;-60
2023/02/28 08:02:51;;;;;;;9.50;5.67;;;1.00;99.90;;;;;;5077102;28;20461;-61
2023/02/28 08:05:18;;;;;;;10.53;6.20;;;1.20;99.90;;;;;;5076910;28;20920;-60
2023/02/28 08:07:47;;;;;;;5.63;4.87;;;1.40;99.90;;;;;;5074160;28;20792;-60
2023/02/28 08:10:14;;;;;;;6.73;4.60;;;1.70;99.90;;;;;;5077344;28;20493;-60
2023/02/28 08:12:43;;;;;;;8.43;5.90;;;1.80;99.90;;;;;;5080048;28;20916;-60
2023/02/28 08:15:10;;;;;;;10.17;5.97;;;2.10;99.90;;;;;;5079570;28;20551;-61
2023/02/28 08:17:38;;;;;;;8.53;4.80;;;2.30;99.90;;;;;;5080123;28;20469;-60
2023/02/28 08:20:06;;;;;;;7.67;6.03;;;2.30;99.90;;;;;;5080559;28;20464;-61
2023/02/28 08:22:33;;;;;;;7.03;4.27;;;2.50;99.90;;;;;;5079800;28;20461;-62
2023/02/28 08:25:00;;;;;;;5.20;3.77;;;2.40;99.90;;;;;;5078305;28;20489;-63
2023/02/28 08:27:27;;;;;;;5.23;3.67;;;2.40;99.90;;;;;;5078698;28;20460;-63
2023/02/28 08:29:56;;;;;;;4.87;4.37;;;2.30;99.90;;;;;;5078081;28;20469;-63
2023/02/28 08:32:23;;;;;;;4.47;3.77;;;2.70;99.90;;;;;;5077925;28;20461;-63
2023/02/28 08:34:51;;;;;;;5.03;4.10;;;2.70;99.90;;;;;;5078644;28;20449;-62
2023/02/28 08:37:18;;;;;;;7.73;3.83;;;3.00;99.90;;;;;;5077911;28;20472;-63
2023/02/28 08:39:45;;;;;;;8.60;4.10;;;3.10;99.90;;;;;;5077955;28;20484;-63
2023/02/28 08:42:12;;;;;;;4.40;3.70;;;3.20;99.90;;;;;;5077754;28;20468;-62
2023/02/28 08:44:40;;;;;;;4.60;3.83;;;3.30;99.90;;;;;;5078962;28;20472;-62
2023/02/28 08:47:08;;;;;;;5.07;3.57;;;3.30;99.90;;;;;;5079914;28;20501;-63
2023/02/28 08:49:36;;;;;;;5.30;3.53;;;3.50;99.90;;;;;;5079890;28;20756;-63
2023/02/28 08:52:03;;;;;;;4.37;3.40;;;3.50;99.90;;;;;;5079522;28;20461;-61
2023/02/28 08:54:31;;;;;;;4.50;3.80;;;3.90;99.90;;;;;;5079972;28;20462;-61
2023/02/28 08:56:58;;;;;;;5.37;3.23;;;4.20;99.90;;;;;;5079937;28;20468;-62
2023/02/28 08:59:25;;;;;;;4.20;3.80;;;4.30;99.90;;;;;;5079097;28;20461;-60
2023/02/28 09:01:53;;;;;;;4.17;3.70;;;4.60;99.90;;;;;;5078861;28;20461;-61
2023/02/28 09:04:22;;;;;;;5.80;4.23;;;4.80;99.90;;;;;;5079009;28;20657;-60
2023/02/28 09:06:49;;;;;;;5.00;2.80;;;4.80;99.90;;;;;;5060814;28;20924;-60
2023/02/28 09:09:16;;;;;;;4.00;3.50;;;4.70;99.90;;;;;;5059108;28;20817;-60
2023/02/28 09:11:44;;;;;;;4.80;3.23;;;5.10;99.90;;;;;;5059315;28;20488;-60
2023/02/28 09:14:11;;;;;;;3.10;2.77;;;5.40;99.90;;;;;;5059356;28;20466;-60
2023/02/28 09:16:38;;;;;;;3.87;3.57;;;5.70;99.90;;;;;;5059324;28;20454;-60
2023/02/28 09:19:05;;;;;;;4.00;3.47;;;5.80;99.90;;;;;;5059164;28;20755;-58
2023/02/28 09:21:34;;;;;;;3.10;2.80;;;6.20;99.90;;;;;;5058638;28;20473;-60
2023/02/28 09:24:01;;;;;;;4.40;3.30;;;6.40;99.90;;;;;;5058502;28;21014;-59
2023/02/28 09:26:29;;;;;;;6.57;2.80;;;6.00;99.90;;;;;;5058846;28;20584;-59
2023/02/28 09:28:56;;;;;;;4.80;3.40;;;6.20;99.90;;;;;;5058977;28;20469;-60
2023/02/28 09:31:25;;;;;;;4.10;3.37;;;6.20;99.90;;;;;;5058931;28;20550;-61
2023/02/28 09:33:54;;;;;;;4.23;3.83;;;5.70;99.90;;;;;;5058597;28;20468;-60
2023/02/28 09:36:21;;;;;;;3.80;3.13;;;5.30;99.90;;;;;;5058838;28;20466;-60
2023/02/28 09:38:51;;;;;;;4.00;3.50;;;4.70;99.90;;;;;;5058829;28;20472;-62
2023/02/28 09:41:21;;;;;;;4.27;3.87;;;4.40;99.90;;;;;;5058823;28;20945;-61
2023/02/28 09:43:51;;;;;;;4.30;2.80;;;4.50;99.90;;;;;;5058611;28;20462;-60
2023/02/28 09:46:32;;;;;;;3.60;3.00;;;4.50;99.90;;;;;;5058539;28;20489;-61
2023/02/28 09:49:03;;;;;;;3.70;3.20;;;4.70;99.90;;;;;;5058782;28;20462;-61
2023/02/28 09:51:42;;;;;;;5.73;2.90;;;5.40;99.90;;;;;;5058171;28;20462;-60
2023/02/28 09:54:18;;;;;;;3.80;2.90;;;5.40;99.90;;;;;;5058603;28;20489;-62
2023/02/28 09:56:46;;;;;;;4.80;2.70;;;5.30;99.90;;;;;;5058452;28;20501;-63
2023/02/28 09:59:23;;;;;;;3.43;2.43;;;4.60;99.90;;;;;;5057980;28;20475;-58
2023/02/28 10:01:59;;;;;;;3.43;2.53;;;4.10;99.90;;;;;;5058046;28;20462;-57
2023/02/28 10:04:40;;;;;;;3.97;2.70;;;4.00;99.90;;;;;;5058167;28;20560;-60
2023/02/28 10:07:19;;;;;;;3.37;2.50;;;3.70;99.90;;;;;;5058025;28;20498;-61
2023/02/28 10:09:53;;;;;;;2.57;2.27;;;3.70;99.90;;;;;;5057477;28;20515;-58
2023/02/28 10:12:21;;;;;;;5.53;3.00;;;3.80;99.90;;;;;;5058563;28;20486;-59
2023/02/28 10:14:51;;;;;;;6.00;2.90;;;3.60;99.90;;;;;;5058163;28;20466;-59
2023/02/28 10:17:22;;;;;;;6.40;2.73;;;3.60;99.90;;;;;;5057882;28;20458;-60
2023/02/28 10:20:00;;;;;;;2.67;2.30;;;3.60;99.90;;;;;;5057296;28;20850;-59
2023/02/28 10:22:34;;;;;;;5.60;2.90;;;3.50;99.90;;;;;;5063545;28;20556;-60
2023/02/28 10:25:17;;;;;;;2.93;2.63;;;3.30;99.90;;;;;;5075822;28;20485;-60
2023/02/28 10:27:44;;;;;;;2.90;2.60;;;3.30;99.90;;;;;;5077687;28;20940;-59
2023/02/28 10:30:14;;;;;;;4.17;2.67;;;3.50;99.90;;;;;;5067502;28;20474;-57
2023/02/28 10:32:44;;;;;;;3.43;2.63;;;3.40;99.90;;;;;;5057250;28;20474;-61
2023/02/28 10:35:17;;;;;;;5.57;3.10;;;3.40;99.90;;;;;;5057075;28;20466;-59
2023/02/28 10:37:46;;;;;;;4.20;3.30;;;3.50;99.90;;;;;;5058058;28;20741;-61
2023/02/28 10:40:30;;;;;;;3.77;2.63;;;3.70;99.90;;;;;;5057505;28;20468;-56
2023/02/28 10:42:59;;;;;;;3.00;2.60;;;4.00;99.90;;;;;;5057707;28;20462;-58
2023/02/28 10:45:29;;;;;;;3.60;3.30;;;5.00;99.90;;;;;;5057594;28;20929;-61
2023/02/28 10:47:58;;;;;;;4.20;2.40;;;5.80;99.90;;;;;;5057570;28;20466;-61
2023/02/28 10:50:32;;;;;;;4.47;2.93;;;6.30;99.90;;;;;;5057633;28;20473;-59
2023/02/28 10:53:15;;;;;;;3.20;2.90;;;6.80;99.90;;;;;;5057056;28;20464;-61
2023/02/28 10:55:43;;;;;;;2.80;2.60;;;6.90;99.90;;;;;;5056815;28;20468;-60
2023/02/28 10:58:23;;;;;;;3.43;3.13;;;7.30;99.90;;;;;;5057209;28;20465;-61
2023/02/28 11:00:51;;;;;;;3.03;2.73;;;7.30;99.90;;;;;;5056511;28;20462;-61
2023/02/28 11:03:30;;;;;;;2.93;2.60;;;7.60;99.90;;;;;;5063671;28;20464;-61
2023/02/28 11:05:58;;;;;;;5.73;3.10;;;8.00;99.90;;;;;;5056324;28;20580;-62
2023/02/28 11:08:25;;;;;;;3.00;2.70;;;8.00;99.90;;;;;;5057190;28;20473;-61
2023/02/28 11:10:59;;;;;;;4.50;2.73;;;8.00;99.90;;;;;;5057263;28;20969;-62
2023/02/28 11:13:30;;;;;;;4.00;2.97;;;7.80;99.90;;;;;;5057303;28;20466;-62
2023/02/28 11:16:01;;;;;;;4.23;3.17;;;7.90;99.90;;;;;;5057372;28;20454;-62
2023/02/28 11:18:31;;;;;;;7.63;3.10;;;8.00;99.90;;;;;;5056989;28;20764;-62
2023/02/28 11:21:02;;;;;;;2.93;2.50;;;8.00;99.90;;;;;;5057377;28;20471;-62
2023/02/28 11:23:33;;;;;;;3.40;2.83;;;8.00;99.90;;;;;;5056470;28;20493;-61
2023/02/28 11:26:04;;;;;;;4.30;2.93;;;7.80;99.90;;;;;;5056254;28;20493;-63
2023/02/28 11:28:33;;;;;;;2.90;2.70;;;8.00;99.90;;;;;;5055726;28;20807;-63
2023/02/28 11:31:19;;;;;;;4.23;3.20;;;8.20;99.90;;;;;;5057374;28;20454;-62
2023/02/28 11:33:49;;;;;;;4.53;3.37;;;8.00;99.90;;;;;;5056640;28;20486;-62
2023/02/28 11:36:20;;;;;;;3.50;3.20;;;7.70;99.90;;;;;;5057037;28;20547;-63
2023/02/28 11:38:49;;;;;;;5.30;3.40;;;8.20;99.90;;;;;;5056368;28;20462;-61
2023/02/28 11:41:42;;;;;;;4.90;3.27;;;8.70;99.90;;;;;;5056876;28;20466;-63
2023/02/28 11:44:36;;;;;;;4.00;3.63;;;8.70;99.90;;;;;;5055906;28;20906;-62
2023/02/28 11:47:10;;;;;;;3.27;2.97;;;9.10;99.90;;;;;;5059700;28;20496;-62
2023/02/28 11:49:48;;;;;;;3.43;3.17;;;9.50;99.90;;;;;;5059355;28;20957;-63
2023/02/28 11:52:22;;;;;;;3.63;2.93;;;9.20;99.90;;;;;;5060181;28;20556;-62
2023/02/28 11:55:05;;;;;;;4.17;3.10;;;8.70;99.90;;;;;;5078351;28;20465;-63
2023/02/28 11:57:46;;;;;;;4.63;3.53;;;9.10;99.90;;;;;;5078111;28;21072;-64
2023/02/28 12:00:28;;;;;;;3.57;3.27;;;8.50;99.90;;;;;;5076997;28;20488;-63
2023/02/28 12:03:09;;;;;;;4.03;2.93;;;7.60;99.90;;;;;;5077130;28;20461;-62
2023/02/28 12:05:45;;;;;;;3.30;3.00;;;7.00;99.90;;;;;;5068577;28;20470;-63
2023/02/28 12:08:27;;;;;;;3.83;3.00;;;7.00;99.90;;;;;;5070791;28;20461;-61
2023/02/28 12:11:07;;;;;;;3.60;3.30;;;6.70;99.90;;;;;;5078872;28;20453;-63
2023/02/28 12:13:47;;;;;;;3.83;3.43;;;6.40;99.90;;;;;;5061621;28;20746;-62
2023/02/28 12:16:41;;;;;;;3.33;3.03;;;7.20;99.90;;;;;;5079771;28;20464;-63
2023/02/28 12:19:18;;;;;;;5.13;3.30;;;7.90;99.90;;;;;;5078041;28;20460;-63
2023/02/28 12:22:13;;;;;;;3.40;3.10;;;8.30;99.90;;;;;;5070919;28;20474;-62
2023/02/28 12:24:55;;;;;;;3.50;3.20;;;9.00;99.90;;;;;;5071602;28;20496;-64
2023/02/28 12:27:25;;;;;;;3.23;2.60;;;8.50;99.90;;;;;;5076763;28;20491;-63
2023/02/28 12:29:59;;;;;;;4.40;3.17;;;8.90;99.90;;;;;;5077197;28;20515;-63
2023/02/28 12:32:32;;;;;;;4.40;3.43;;;9.20;99.90;;;;;;5075152;28;20871;-63
2023/02/28 12:35:05;;;;;;;3.77;3.40;;;9.30;99.90;;;;;;5076934;28;20454;-63
2023/02/28 12:37:39;;;;;;;5.50;3.30;;;8.80;99.90;;;;;;5074243;28;20915;-62
2023/02/28 12:40:12;;;;;;;5.10;3.50;;;9.20;99.90;;;;;;5078071;28;20460;-64
2023/02/28 12:42:42;;;;;;;4.83;3.57;;;9.30;99.90;;;;;;5077741;28;20465;-63
2023/02/28 12:45:16;;;;;;;4.77;3.40;;;8.80;99.90;;;;;;5077174;28;20841;-64
2023/02/28 12:47:47;;;;;;;5.20;3.40;;;8.10;99.90;;;;;;5076897;28;20492;-62
2023/02/28 12:50:14;;;;;;;5.13;3.50;;;7.90;99.90;;;;;;5077514;28;20481;-62
2023/02/28 12:52:48;;;;;;;4.10;3.30;;;7.60;99.90;;;;;;5078121;28;20467;-61
2023/02/28 12:55:21;;;;;;;4.70;3.40;;;8.20;99.90;;;;;;5077919;28;20468;-59
2023/02/28 12:57:56;;;;;;;6.47;3.07;;;8.60;99.90;;;;;;5079005;28;20462;-61
2023/02/28 13:00:30;;;;;;;3.67;3.37;;;8.30;99.90;;;;;;5079605;28;20461;-63
2023/02/28 13:03:36;;;;;;;4.60;3.67;;;8.70;99.90;;;;;;5079955;28;20929;-60
2023/02/28 13:06:33;;;;;;;3.53;3.23;;;8.10;99.90;;;;;;5075840;28;20479;-62
2023/02/28 13:09:06;;;;;;;3.03;2.67;;;8.80;99.90;;;;;;5078152;28;20527;-61
2023/02/28 13:11:39;;;;;;;3.50;3.20;;;8.60;99.90;;;;;;5077664;28;20469;-62
2023/02/28 13:14:17;;;;;;;3.60;3.30;;;8.60;99.90;;;;;;5077568;28;20924;-61
2023/02/28 13:17:00;;;;;;;4.53;3.03;;;8.60;99.90;;;;;;5079030;28;20472;-63